Terminal Aerodrome Forecast
Issued by NWS Pocatello, ID

Home | Current Version | Previous Version | Text Only | Print | Product List | Glossary On
Versions: 1 2 3 4 5 6 7 8 9 10 11 12 13 14 15 16 17 18 19
618
FTUS45 KPIH 241723
TAFIDA
TAF
KIDA 241723Z 2418/2518 36011KT P6SM SCT090 BKN120
     FM250400 22008KT P6SM FEW150
     FM250800 21007KT P6SM SCT020
     FM251700 24007KT P6SM FEW100=

USA.gov is the U.S. government's official web portal to all federal, state and local government web resources and services.